Main page
METAR-TAF:

METAR-TAF

Airports :

Corfu International Airport

Corfu, Greece

latitude: 39-37N, longitude: 019-55E, elevation: 2 m

Current weather observation

The report was made 12 minutes ago, at 10:20 UTC
Wind 14 kt from the North/Northwest
Temperature 29°C
Humidity 79%
Pressure 1009 hPa
Visibility 10 km or more
Few clouds at a height of 2500 ft

METAR: LGKR 181020Z 34014KT 9999 FEW025 29/25 Q1009 NOSIG

Time: 13:32 (10:32 UTC)

Forecast

The report was made 5 hours and 32 minutes ago, at 05:00 UTC
Forecast valid from 18 at 06 UTC to 19 at 06 UTC
Wind 15 kt from the Northwest
Visibility 10 km or more
Few clouds at a height of 1600 ft
Scattered clouds at a height of 8000 ft
Becoming
from 18 at 10 UTC to 18 at 12 UTC
Wind 15 kt from the Northwest with gusts up to 25 kt

TAF: LGKR 180500Z 1806/1906 32015KT 9999 FEW016 SCT080 BECMG 1810/1812 32015G25KT

Weather observations and forecasts of more than 4000 airports (METAR and TAF reports).

The available stations are represented by yellow and red dots on the map.

Hover mouse over dot to see the name of the station.

Then click to see weather observations and forecasts.

To change the map : click on the green buttons with a black cross to zoom in, on the green button with a dash to zoom out, or on the green arrows for adjacent maps.


METAR-TAF: